sensor_id;sensor_type;location;lat;lon;timestamp;pressure;altitude;pressure_sealevel;temperature;humidity
64739;BME280;51175;51.186;0.276;2023-02-03T00:00:08;102459.25;;;12.55;70.06
64739;BME280;51175;51.186;0.276;2023-02-03T00:00:39;102466.16;;;12.56;70.02
64739;BME280;51175;51.186;0.276;2023-02-03T00:01:09;102460.84;;;12.56;70.31
64739;BME280;51175;51.186;0.276;2023-02-03T00:01:40;102459.25;;;12.55;70.23
64739;BME280;51175;51.186;0.276;2023-02-03T00:02:10;102461.06;;;12.54;69.96
64739;BME280;51175;51.186;0.276;2023-02-03T00:02:41;102459.25;;;12.55;70.10
64739;BME280;51175;51.186;0.276;2023-02-03T00:03:11;102468.78;;;12.56;70.21
64739;BME280;51175;51.186;0.276;2023-02-03T00:03:42;102464.53;;;12.55;70.09
64739;BME280;51175;51.186;0.276;2023-02-03T00:04:12;102456.59;;;12.55;70.10
64739;BME280;51175;51.186;0.276;2023-02-03T00:04:43;102475.16;;;12.55;70.25
64739;BME280;51175;51.186;0.276;2023-02-03T00:05:13;102475.16;;;12.55;70.11
64739;BME280;51175;51.186;0.276;2023-02-03T00:05:44;102467.19;;;12.55;70.14
64739;BME280;51175;51.186;0.276;2023-02-03T00:06:16;102473.31;;;12.56;70.18
64739;BME280;51175;51.186;0.276;2023-02-03T00:06:46;102479.63;;;12.54;70.08
64739;BME280;51175;51.186;0.276;2023-02-03T00:07:17;102475.38;;;12.53;70.06
64739;BME280;51175;51.186;0.276;2023-02-03T00:07:48;102482.28;;;12.54;70.15
64739;BME280;51175;51.186;0.276;2023-02-03T00:08:19;102484.13;;;12.54;70.08
64739;BME280;51175;51.186;0.276;2023-02-03T00:08:54;102484.94;;;12.54;70.21
64739;BME280;51175;51.186;0.276;2023-02-03T00:09:26;102484.94;;;12.54;70.14
64739;BME280;51175;51.186;0.276;2023-02-03T00:09:56;102492.09;;;12.54;69.97
64739;BME280;51175;51.186;0.276;2023-02-03T00:10:27;102493.91;;;12.53;70.35
64739;BME280;51175;51.186;0.276;2023-02-03T00:10:57;102498.41;;;12.53;70.20
64739;BME280;51175;51.186;0.276;2023-02-03T00:11:29;102493.09;;;12.53;70.19
64739;BME280;51175;51.186;0.276;2023-02-03T00:12:00;102498.41;;;12.53;70.05
64739;BME280;51175;51.186;0.276;2023-02-03T00:12:30;102493.09;;;12.53;70.16
64739;BME280;51175;51.186;0.276;2023-02-03T00:13:01;102503.69;;;12.53;70.21
64739;BME280;51175;51.186;0.276;2023-02-03T00:13:33;102501.06;;;12.53;70.18
64739;BME280;51175;51.186;0.276;2023-02-03T00:14:03;102500.25;;;12.52;70.25
64739;BME280;51175;51.186;0.276;2023-02-03T00:14:34;102500.25;;;12.52;70.34
64739;BME280;51175;51.186;0.276;2023-02-03T00:15:07;102503.69;;;12.53;70.23
64739;BME280;51175;51.186;0.276;2023-02-03T00:15:38;102497.38;;;12.54;70.17
64739;BME280;51175;51.186;0.276;2023-02-03T00:16:08;102496.56;;;12.53;70.04
64739;BME280;51175;51.186;0.276;2023-02-03T00:16:38;102502.09;;;12.52;70.07
64739;BME280;51175;51.186;0.276;2023-02-03T00:17:09;102508.22;;;12.52;70.16
64739;BME280;51175;51.186;0.276;2023-02-03T00:17:39;102509.00;;;12.53;70.17
64739;BME280;51175;51.186;0.276;2023-02-03T00:18:09;102501.06;;;12.53;70.27
64739;BME280;51175;51.186;0.276;2023-02-03T00:18:40;102501.28;;;12.51;70.28
64739;BME280;51175;51.186;0.276;2023-02-03T00:19:10;102510.03;;;12.52;70.16
64739;BME280;51175;51.186;0.276;2023-02-03T00:19:41;102510.03;;;12.52;70.28
64739;BME280;51175;51.186;0.276;2023-02-03T00:20:11;102511.88;;;12.51;69.99
64739;BME280;51175;51.186;0.276;2023-02-03T00:20:41;102511.88;;;12.51;69.99
64739;BME280;51175;51.186;0.276;2023-02-03T00:21:12;102510.03;;;12.52;70.03
64739;BME280;51175;51.186;0.276;2023-02-03T00:21:44;102513.50;;;12.52;70.25
64739;BME280;51175;51.186;0.276;2023-02-03T00:22:15;102511.88;;;12.51;69.94
64739;BME280;51175;51.186;0.276;2023-02-03T00:22:45;102512.69;;;12.52;70.27
64739;BME280;51175;51.186;0.276;2023-02-03T00:23:15;102510.88;;;12.52;70.27
64739;BME280;51175;51.186;0.276;2023-02-03T00:23:46;102509.22;;;12.51;70.08
64739;BME280;51175;51.186;0.276;2023-02-03T00:24:16;102509.22;;;12.51;69.98
64739;BME280;51175;51.186;0.276;2023-02-03T00:24:49;102503.13;;;12.51;69.97
64739;BME280;51175;51.186;0.276;2023-02-03T00:25:19;102508.44;;;12.51;70.20
64739;BME280;51175;51.186;0.276;2023-02-03T00:25:51;102508.44;;;12.51;70.16
64739;BME280;51175;51.186;0.276;2023-02-03T00:26:21;102519.81;;;12.51;70.15
64739;BME280;51175;51.186;0.276;2023-02-03T00:26:54;102504.97;;;12.50;70.27
64739;BME280;51175;51.186;0.276;2023-02-03T00:27:24;102516.38;;;12.51;70.04
64739;BME280;51175;51.186;0.276;2023-02-03T00:27:55;102508.44;;;12.51;70.22
64739;BME280;51175;51.186;0.276;2023-02-03T00:28:27;102511.88;;;12.51;70.26
64739;BME280;51175;51.186;0.276;2023-02-03T00:29:00;102504.97;;;12.50;70.34
64739;BME280;51175;51.186;0.276;2023-02-03T00:29:31;102510.28;;;12.50;70.10
64739;BME280;51175;51.186;0.276;2023-02-03T00:30:02;102511.09;;;12.51;70.09
64739;BME280;51175;51.186;0.276;2023-02-03T00:30:34;102510.28;;;12.50;70.13
64739;BME280;51175;51.186;0.276;2023-02-03T00:31:05;102523.53;;;12.50;70.00
64739;BME280;51175;51.186;0.276;2023-02-03T00:31:36;102514.75;;;12.50;70.26
64739;BME280;51175;51.186;0.276;2023-02-03T00:32:06;102514.75;;;12.50;70.13
64739;BME280;51175;51.186;0.276;2023-02-03T00:32:37;102523.53;;;12.50;70.31
64739;BME280;51175;51.186;0.276;2023-02-03T00:33:07;102525.34;;;12.50;70.15
64739;BME280;51175;51.186;0.276;2023-02-03T00:33:38;102524.56;;;12.49;70.17
64739;BME280;51175;51.186;0.276;2023-02-03T00:34:08;102522.69;;;12.50;70.21
64739;BME280;51175;51.186;0.276;2023-02-03T00:34:39;102522.69;;;12.50;70.06
64739;BME280;51175;51.186;0.276;2023-02-03T00:35:10;102520.06;;;12.50;70.26
64739;BME280;51175;51.186;0.276;2023-02-03T00:35:40;102526.16;;;12.50;70.34
64739;BME280;51175;51.186;0.276;2023-02-03T00:36:11;102528.81;;;12.50;70.24
64739;BME280;51175;51.186;0.276;2023-02-03T00:36:41;102528.00;;;12.50;70.11
64739;BME280;51175;51.186;0.276;2023-02-03T00:37:12;102527.22;;;12.49;70.41
64739;BME280;51175;51.186;0.276;2023-02-03T00:37:43;102532.50;;;12.49;70.16
64739;BME280;51175;51.186;0.276;2023-02-03T00:38:13;102525.34;;;12.50;70.08
64739;BME280;51175;51.186;0.276;2023-02-03T00:38:43;102525.34;;;12.50;70.27
64739;BME280;51175;51.186;0.276;2023-02-03T00:39:14;102522.69;;;12.50;70.14
64739;BME280;51175;51.186;0.276;2023-02-03T00:39:45;102516.59;;;12.49;70.32
64739;BME280;51175;51.186;0.276;2023-02-03T00:40:15;102513.13;;;12.49;70.12
64739;BME280;51175;51.186;0.276;2023-02-03T00:40:53;102519.25;;;12.49;70.28
64739;BME280;51175;51.186;0.276;2023-02-03T00:41:27;102521.09;;;12.49;70.09
64739;BME280;51175;51.186;0.276;2023-02-03T00:41:58;102520.06;;;12.50;70.31
64739;BME280;51175;51.186;0.276;2023-02-03T00:42:29;102518.44;;;12.49;70.29
64739;BME280;51175;51.186;0.276;2023-02-03T00:42:59;102518.44;;;12.49;70.16
64739;BME280;51175;51.186;0.276;2023-02-03T00:43:30;102524.56;;;12.49;70.04
64739;BME280;51175;51.186;0.276;2023-02-03T00:44:00;102523.75;;;12.49;69.99
64739;BME280;51175;51.186;0.276;2023-02-03T00:44:31;102520.06;;;12.50;70.25
64739;BME280;51175;51.186;0.276;2023-02-03T00:45:01;102517.41;;;12.50;70.24
64739;BME280;51175;51.186;0.276;2023-02-03T00:45:32;102525.56;;;12.48;70.08
64739;BME280;51175;51.186;0.276;2023-02-03T00:46:02;102519.25;;;12.49;70.21
64739;BME280;51175;51.186;0.276;2023-02-03T00:46:32;102521.09;;;12.49;70.14
64739;BME280;51175;51.186;0.276;2023-02-03T00:47:05;102518.44;;;12.49;70.21
64739;BME280;51175;51.186;0.276;2023-02-03T00:47:36;102512.31;;;12.48;70.26
64739;BME280;51175;51.186;0.276;2023-02-03T00:48:06;102520.28;;;12.48;70.32
64739;BME280;51175;51.186;0.276;2023-02-03T00:48:37;102510.50;;;12.49;70.29
64739;BME280;51175;51.186;0.276;2023-02-03T00:49:07;102515.78;;;12.49;69.91
64739;BME280;51175;51.186;0.276;2023-02-03T00:49:37;102511.53;;;12.48;70.26
64739;BME280;51175;51.186;0.276;2023-02-03T00:50:09;102513.97;;;12.49;70.03
64739;BME280;51175;51.186;0.276;2023-02-03T00:50:39;102514.97;;;12.48;70.26
64739;BME280;51175;51.186;0.276;2023-02-03T00:51:10;102509.66;;;12.48;70.32
64739;BME280;51175;51.186;0.276;2023-02-03T00:51:40;102512.31;;;12.48;69.92
64739;BME280;51175;51.186;0.276;2023-02-03T00:52:10;102507.84;;;12.49;69.90
64739;BME280;51175;51.186;0.276;2023-02-03T00:52:41;102509.66;;;12.48;70.25
64739;BME280;51175;51.186;0.276;2023-02-03T00:53:11;102506.78;;;12.50;70.11
64739;BME280;51175;51.186;0.276;2023-02-03T00:53:41;102507.84;;;12.49;70.17
64739;BME280;51175;51.186;0.276;2023-02-03T00:54:12;102502.53;;;12.49;70.32
64739;BME280;51175;51.186;0.276;2023-02-03T00:54:42;102508.66;;;12.49;70.08
64739;BME280;51175;51.186;0.276;2023-02-03T00:55:13;102505.19;;;12.49;70.08
64739;BME280;51175;51.186;0.276;2023-02-03T00:55:43;102512.31;;;12.48;70.51
64739;BME280;51175;51.186;0.276;2023-02-03T00:56:14;102508.66;;;12.49;70.41
64739;BME280;51175;51.186;0.276;2023-02-03T00:56:44;102510.50;;;12.49;70.19
64739;BME280;51175;51.186;0.276;2023-02-03T00:57:14;102507.03;;;12.48;70.41
64739;BME280;51175;51.186;0.276;2023-02-03T00:57:45;102505.19;;;12.49;70.17
64739;BME280;51175;51.186;0.276;2023-02-03T00:58:15;102507.84;;;12.49;70.13
64739;BME280;51175;51.186;0.276;2023-02-03T00:58:46;102515.78;;;12.49;70.15
64739;BME280;51175;51.186;0.276;2023-02-03T00:59:16;102513.13;;;12.49;70.05
64739;BME280;51175;51.186;0.276;2023-02-03T00:59:46;102512.31;;;12.48;70.29
64739;BME280;51175;51.186;0.276;2023-02-03T01:00:18;102509.66;;;12.48;70.17
64739;BME280;51175;51.186;0.276;2023-02-03T01:00:48;102510.50;;;12.49;70.17
64739;BME280;51175;51.186;0.276;2023-02-03T01:01:19;102513.13;;;12.49;70.22
64739;BME280;51175;51.186;0.276;2023-02-03T01:01:49;102504.16;;;12.50;70.18
64739;BME280;51175;51.186;0.276;2023-02-03T01:02:20;102511.31;;;12.49;69.97
64739;BME280;51175;51.186;0.276;2023-02-03T01:02:50;102507.84;;;12.49;70.27
64739;BME280;51175;51.186;0.276;2023-02-03T01:03:20;102502.53;;;12.49;70.14
64739;BME280;51175;51.186;0.276;2023-02-03T01:03:53;102509.66;;;12.48;69.96
64739;BME280;51175;51.186;0.276;2023-02-03T01:04:24;102510.50;;;12.49;69.99
64739;BME280;51175;51.186;0.276;2023-02-03T01:04:55;102503.34;;;12.49;70.35
64739;BME280;51175;51.186;0.276;2023-02-03T01:05:25;102507.84;;;12.49;70.26
64739;BME280;51175;51.186;0.276;2023-02-03T01:05:55;102510.50;;;12.49;70.17
64739;BME280;51175;51.186;0.276;2023-02-03T01:06:26;102506.78;;;12.50;70.06
64739;BME280;51175;51.186;0.276;2023-02-03T01:06:57;102509.44;;;12.50;70.21
64739;BME280;51175;51.186;0.276;2023-02-03T01:07:31;102512.09;;;12.50;70.09
64739;BME280;51175;51.186;0.276;2023-02-03T01:08:02;102501.50;;;12.50;70.33
64739;BME280;51175;51.186;0.276;2023-02-03T01:08:32;102504.16;;;12.50;70.22
64739;BME280;51175;51.186;0.276;2023-02-03T01:09:03;102499.88;;;12.49;70.09
64739;BME280;51175;51.186;0.276;2023-02-03T01:09:34;102503.59;;;12.48;70.17
64739;BME280;51175;51.186;0.276;2023-02-03T01:10:05;102505.19;;;12.49;70.09
64739;BME280;51175;51.186;0.276;2023-02-03T01:10:37;102501.72;;;12.48;70.03
64739;BME280;51175;51.186;0.276;2023-02-03T01:11:09;102494.59;;;12.49;69.99
64739;BME280;51175;51.186;0.276;2023-02-03T01:11:40;102493.53;;;12.50;70.03
64739;BME280;51175;51.186;0.276;2023-02-03T01:12:10;102487.47;;;12.49;70.25
64739;BME280;51175;51.186;0.276;2023-02-03T01:12:41;102494.59;;;12.49;70.26
64739;BME280;51175;51.186;0.276;2023-02-03T01:13:11;102494.59;;;12.49;70.31
64739;BME280;51175;51.186;0.276;2023-02-03T01:13:42;102492.75;;;12.49;70.21
64739;BME280;51175;51.186;0.276;2023-02-03T01:14:13;102490.91;;;12.50;70.20
64739;BME280;51175;51.186;0.276;2023-02-03T01:14:43;102496.41;;;12.48;70.19
64739;BME280;51175;51.186;0.276;2023-02-03T01:15:13;102500.94;;;12.48;70.00
64739;BME280;51175;51.186;0.276;2023-02-03T01:15:46;102491.13;;;12.48;70.28
64739;BME280;51175;51.186;0.276;2023-02-03T01:16:18;102506.00;;;12.49;70.02
64739;BME280;51175;51.186;0.276;2023-02-03T01:16:49;102502.53;;;12.49;70.24
64739;BME280;51175;51.186;0.276;2023-02-03T01:17:19;102505.19;;;12.49;70.02
64739;BME280;51175;51.186;0.276;2023-02-03T01:17:49;102505.19;;;12.49;70.03
64739;BME280;51175;51.186;0.276;2023-02-03T01:18:20;102505.19;;;12.49;70.33
64739;BME280;51175;51.186;0.276;2023-02-03T01:18:50;102503.34;;;12.49;70.13
64739;BME280;51175;51.186;0.276;2023-02-03T01:19:21;102499.88;;;12.49;70.33
64739;BME280;51175;51.186;0.276;2023-02-03T01:19:52;102503.34;;;12.49;70.11
64739;BME280;51175;51.186;0.276;2023-02-03T01:20:22;102505.19;;;12.49;70.01
64739;BME280;51175;51.186;0.276;2023-02-03T01:20:53;102504.16;;;12.50;70.29
64739;BME280;51175;51.186;0.276;2023-02-03T01:21:24;102500.72;;;12.49;70.09
64739;BME280;51175;51.186;0.276;2023-02-03T01:21:55;102504.16;;;12.50;70.14
64739;BME280;51175;51.186;0.276;2023-02-03T01:22:28;102491.94;;;12.49;70.14
64739;BME280;51175;51.186;0.276;2023-02-03T01:22:59;102500.72;;;12.49;70.32
64739;BME280;51175;51.186;0.276;2023-02-03T01:23:29;102497.25;;;12.49;70.24
64739;BME280;51175;51.186;0.276;2023-02-03T01:24:00;102501.72;;;12.48;70.23
64739;BME280;51175;51.186;0.276;2023-02-03T01:24:30;102506.00;;;12.49;70.15
64739;BME280;51175;51.186;0.276;2023-02-03T01:25:00;102494.59;;;12.49;70.11
64739;BME280;51175;51.186;0.276;2023-02-03T01:25:34;102499.66;;;12.50;70.14
64739;BME280;51175;51.186;0.276;2023-02-03T01:26:06;102504.16;;;12.50;70.24
64739;BME280;51175;51.186;0.276;2023-02-03T01:26:37;102500.72;;;12.49;70.21
64739;BME280;51175;51.186;0.276;2023-02-03T01:27:07;102507.84;;;12.49;70.37
64739;BME280;51175;51.186;0.276;2023-02-03T01:27:38;102508.66;;;12.49;70.08
64739;BME280;51175;51.186;0.276;2023-02-03T01:28:08;102503.34;;;12.49;70.32
64739;BME280;51175;51.186;0.276;2023-02-03T01:28:39;102506.00;;;12.49;70.22
64739;BME280;51175;51.186;0.276;2023-02-03T01:29:10;102506.78;;;12.50;70.19
64739;BME280;51175;51.186;0.276;2023-02-03T01:29:40;102502.53;;;12.49;70.16
64739;BME280;51175;51.186;0.276;2023-02-03T01:30:11;102507.84;;;12.49;70.15
64739;BME280;51175;51.186;0.276;2023-02-03T01:30:41;102507.84;;;12.49;70.12
64739;BME280;51175;51.186;0.276;2023-02-03T01:31:14;102507.84;;;12.49;70.12
64739;BME280;51175;51.186;0.276;2023-02-03T01:31:45;102504.16;;;12.50;70.07
64739;BME280;51175;51.186;0.276;2023-02-03T01:32:15;102499.88;;;12.49;70.03
64739;BME280;51175;51.186;0.276;2023-02-03T01:32:46;102505.19;;;12.49;69.98
64739;BME280;51175;51.186;0.276;2023-02-03T01:33:16;102516.59;;;12.49;70.38
64739;BME280;51175;51.186;0.276;2023-02-03T01:33:47;102509.44;;;12.50;70.32
64739;BME280;51175;51.186;0.276;2023-02-03T01:34:17;102513.97;;;12.49;69.93
64739;BME280;51175;51.186;0.276;2023-02-03T01:34:48;102521.91;;;12.49;70.23
64739;BME280;51175;51.186;0.276;2023-02-03T01:35:18;102517.41;;;12.50;70.29
64739;BME280;51175;51.186;0.276;2023-02-03T01:35:49;102512.31;;;12.48;70.03
64739;BME280;51175;51.186;0.276;2023-02-03T01:36:21;102516.59;;;12.49;70.32
64739;BME280;51175;51.186;0.276;2023-02-03T01:36:52;102512.09;;;12.50;70.13
64739;BME280;51175;51.186;0.276;2023-02-03T01:37:22;102506.00;;;12.49;70.16
64739;BME280;51175;51.186;0.276;2023-02-03T01:37:52;102502.53;;;12.49;70.34
64739;BME280;51175;51.186;0.276;2023-02-03T01:38:23;102514.75;;;12.50;70.41
64739;BME280;51175;51.186;0.276;2023-02-03T01:38:53;102506.00;;;12.49;70.16
64739;BME280;51175;51.186;0.276;2023-02-03T01:39:24;102505.19;;;12.49;70.24
64739;BME280;51175;51.186;0.276;2023-02-03T01:39:55;102511.31;;;12.49;70.08
64739;BME280;51175;51.186;0.276;2023-02-03T01:40:26;102508.66;;;12.49;70.04
64739;BME280;51175;51.186;0.276;2023-02-03T01:40:56;102510.50;;;12.49;70.00
64739;BME280;51175;51.186;0.276;2023-02-03T01:41:30;102506.00;;;12.49;70.22
64739;BME280;51175;51.186;0.276;2023-02-03T01:42:01;102503.34;;;12.49;70.13
64739;BME280;51175;51.186;0.276;2023-02-03T01:42:32;102506.78;;;12.50;70.26
64739;BME280;51175;51.186;0.276;2023-02-03T01:43:03;102506.78;;;12.50;69.96
64739;BME280;51175;51.186;0.276;2023-02-03T01:43:39;102499.06;;;12.48;70.11
64739;BME280;51175;51.186;0.276;2023-02-03T01:44:45;102509.44;;;12.50;70.20
64739;BME280;51175;51.186;0.276;2023-02-03T01:45:24;102511.53;;;12.48;70.28
64739;BME280;51175;51.186;0.276;2023-02-03T01:45:54;102506.22;;;12.48;70.10
64739;BME280;51175;51.186;0.276;2023-02-03T01:46:34;102508.06;;;12.47;70.31
64739;BME280;51175;51.186;0.276;2023-02-03T01:47:30;102511.53;;;12.48;70.25
64739;BME280;51175;51.186;0.276;2023-02-03T01:48:02;102510.72;;;12.47;70.09
64739;BME280;51175;51.186;0.276;2023-02-03T01:48:33;102509.91;;;12.47;70.05
64739;BME280;51175;51.186;0.276;2023-02-03T01:49:41;102509.91;;;12.47;70.39
64739;BME280;51175;51.186;0.276;2023-02-03T01:50:21;102509.91;;;12.47;70.32
64739;BME280;51175;51.186;0.276;2023-02-03T01:50:54;102506.47;;;12.46;70.00
64739;BME280;51175;51.186;0.276;2023-02-03T01:51:24;102502.97;;;12.46;70.17
64739;BME280;51175;51.186;0.276;2023-02-03T01:51:55;102508.28;;;12.46;70.30
64739;BME280;51175;51.186;0.276;2023-02-03T01:52:26;102501.16;;;12.46;70.35
64739;BME280;51175;51.186;0.276;2023-02-03T01:53:01;102500.34;;;12.46;70.10
64739;BME280;51175;51.186;0.276;2023-02-03T01:53:33;102502.97;;;12.46;70.18
64739;BME280;51175;51.186;0.276;2023-02-03T01:54:03;102492.38;;;12.46;70.25
64739;BME280;51175;51.186;0.276;2023-02-03T01:54:40;102497.69;;;12.46;70.52
64739;BME280;51175;51.186;0.276;2023-02-03T01:55:17;102496.88;;;12.45;70.23
64739;BME280;51175;51.186;0.276;2023-02-03T01:55:49;102496.88;;;12.45;70.34
64739;BME280;51175;51.186;0.276;2023-02-03T01:56:20;102497.69;;;12.46;70.33
64739;BME280;51175;51.186;0.276;2023-02-03T01:56:59;102493.19;;;12.46;70.21
64739;BME280;51175;51.186;0.276;2023-02-03T01:57:37;102500.34;;;12.46;70.29
64739;BME280;51175;51.186;0.276;2023-02-03T01:58:17;102498.50;;;12.46;70.26
64739;BME280;51175;51.186;0.276;2023-02-03T01:58:50;102497.69;;;12.46;70.39
64739;BME280;51175;51.186;0.276;2023-02-03T01:59:21;102495.03;;;12.46;70.18
64739;BME280;51175;51.186;0.276;2023-02-03T01:59:53;102493.19;;;12.46;70.22
64739;BME280;51175;51.186;0.276;2023-02-03T02:00:25;102488.91;;;12.45;70.19
64739;BME280;51175;51.186;0.276;2023-02-03T02:00:57;102495.03;;;12.46;70.21
64739;BME280;51175;51.186;0.276;2023-02-03T02:01:29;102497.69;;;12.46;70.32
64739;BME280;51175;51.186;0.276;2023-02-03T02:02:01;102491.56;;;12.45;70.18
64739;BME280;51175;51.186;0.276;2023-02-03T02:02:32;102496.06;;;12.45;70.10
64739;BME280;51175;51.186;0.276;2023-02-03T02:03:04;102488.91;;;12.45;70.29
64739;BME280;51175;51.186;0.276;2023-02-03T02:03:45;102495.84;;;12.46;70.37
64739;BME280;51175;51.186;0.276;2023-02-03T02:04:17;102487.91;;;12.46;70.12
64739;BME280;51175;51.186;0.276;2023-02-03T02:05:04;102492.38;;;12.46;70.17
64739;BME280;51175;51.186;0.276;2023-02-03T02:05:53;102498.50;;;12.46;70.46
64739;BME280;51175;51.186;0.276;2023-02-03T02:06:25;102495.84;;;12.46;70.22
64739;BME280;51175;51.186;0.276;2023-02-03T02:06:57;102494.44;;;12.44;70.34
64739;BME280;51175;51.186;0.276;2023-02-03T02:07:28;102496.88;;;12.45;70.34
64739;BME280;51175;51.186;0.276;2023-02-03T02:08:01;102503.22;;;12.44;70.44
64739;BME280;51175;51.186;0.276;2023-02-03T02:08:33;102498.72;;;12.45;70.39
64739;BME280;51175;51.186;0.276;2023-02-03T02:09:05;102505.03;;;12.44;70.35
64739;BME280;51175;51.186;0.276;2023-02-03T02:09:35;102500.56;;;12.44;70.41
64739;BME280;51175;51.186;0.276;2023-02-03T02:10:06;102501.38;;;12.45;70.33
64739;BME280;51175;51.186;0.276;2023-02-03T02:10:37;102501.38;;;12.45;70.28
64739;BME280;51175;51.186;0.276;2023-02-03T02:11:08;102509.31;;;12.45;70.34
64739;BME280;51175;51.186;0.276;2023-02-03T02:11:38;102501.16;;;12.46;70.53
64739;BME280;51175;51.186;0.276;2023-02-03T02:12:12;102493.44;;;12.45;70.33
64739;BME280;51175;51.186;0.276;2023-02-03T02:12:42;102504.03;;;12.45;70.15
64739;BME280;51175;51.186;0.276;2023-02-03T02:13:14;102504.81;;;12.45;70.27
64739;BME280;51175;51.186;0.276;2023-02-03T02:13:47;102502.16;;;12.45;70.25
64739;BME280;51175;51.186;0.276;2023-02-03T02:14:20;102498.72;;;12.45;70.44
64739;BME280;51175;51.186;0.276;2023-02-03T02:14:50;102502.97;;;12.46;70.38
64739;BME280;51175;51.186;0.276;2023-02-03T02:15:22;102506.47;;;12.46;70.19
64739;BME280;51175;51.186;0.276;2023-02-03T02:16:20;102504.59;;;12.47;70.31
64739;BME280;51175;51.186;0.276;2023-02-03T02:17:25;102500.34;;;12.46;70.20
64739;BME280;51175;51.186;0.276;2023-02-03T02:18:09;102496.06;;;12.45;70.41
64739;BME280;51175;51.186;0.276;2023-02-03T02:26:38;102494.88;;;12.40;70.68
64739;BME280;51175;51.186;0.276;2023-02-03T02:31:03;102484.50;;;12.39;70.55
64739;BME280;51175;51.186;0.276;2023-02-03T02:32:11;102495.31;;;12.37;70.41
64739;BME280;51175;51.186;0.276;2023-02-03T02:33:07;102483.13;;;12.36;70.56
64739;BME280;51175;51.186;0.276;2023-02-03T02:33:44;102483.72;;;12.38;70.46
64739;BME280;51175;51.186;0.276;2023-02-03T02:35:36;102483.94;;;12.37;70.36
64739;BME280;51175;51.186;0.276;2023-02-03T02:37:16;102482.31;;;12.36;70.55
64739;BME280;51175;51.186;0.276;2023-02-03T02:38:48;102479.66;;;12.36;70.55
64739;BME280;51175;51.186;0.276;2023-02-03T02:39:31;102478.88;;;12.35;70.48
64739;BME280;51175;51.186;0.276;2023-02-03T02:41:01;102477.00;;;12.36;70.84
64739;BME280;51175;51.186;0.276;2023-02-03T02:42:22;102476.22;;;12.35;70.96
64739;BME280;51175;51.186;0.276;2023-02-03T02:43:08;102479.66;;;12.36;70.59
64739;BME280;51175;51.186;0.276;2023-02-03T02:44:48;102481.50;;;12.35;70.61
64739;BME280;51175;51.186;0.276;2023-02-03T02:45:26;102490.25;;;12.36;70.71
64739;BME280;51175;51.186;0.276;2023-02-03T02:46:15;102489.47;;;12.35;70.73
64739;BME280;51175;51.186;0.276;2023-02-03T02:46:57;102487.59;;;12.36;70.83
64739;BME280;51175;51.186;0.276;2023-02-03T02:47:28;102478.88;;;12.35;70.91
64739;BME280;51175;51.186;0.276;2023-02-03T02:48:06;102479.66;;;12.36;70.78
64739;BME280;51175;51.186;0.276;2023-02-03T02:48:43;102477.00;;;12.36;70.82
64739;BME280;51175;51.186;0.276;2023-02-03T02:49:21;102491.06;;;12.36;70.82
64739;BME280;51175;51.186;0.276;2023-02-03T02:50:13;102487.59;;;12.36;70.70
64739;BME280;51175;51.186;0.276;2023-02-03T02:50:49;102489.25;;;12.37;70.71
64739;BME280;51175;51.186;0.276;2023-02-03T02:51:22;102494.53;;;12.37;70.87
64739;BME280;51175;51.186;0.276;2023-02-03T02:51:54;102489.25;;;12.37;70.74
64739;BME280;51175;51.186;0.276;2023-02-03T02:52:29;102484.94;;;12.36;70.77
64739;BME280;51175;51.186;0.276;2023-02-03T02:53:01;102486.38;;;12.38;70.50
64739;BME280;51175;51.186;0.276;2023-02-03T02:53:36;102487.38;;;12.37;70.65
64739;BME280;51175;51.186;0.276;2023-02-03T02:54:12;102482.09;;;12.37;70.82
64739;BME280;51175;51.186;0.276;2023-02-03T02:54:48;102487.38;;;12.37;70.80
64739;BME280;51175;51.186;0.276;2023-02-03T02:55:23;102491.66;;;12.38;70.68
64739;BME280;51175;51.186;0.276;2023-02-03T02:55:57;102491.66;;;12.38;70.65
64739;BME280;51175;51.186;0.276;2023-02-03T02:56:30;102487.16;;;12.39;70.56
64739;BME280;51175;51.186;0.276;2023-02-03T02:57:03;102487.97;;;12.39;70.83
64739;BME280;51175;51.186;0.276;2023-02-03T02:57:36;102483.50;;;12.40;70.57
64739;BME280;51175;51.186;0.276;2023-02-03T02:58:10;102486.16;;;12.40;70.58
64739;BME280;51175;51.186;0.276;2023-02-03T02:58:44;102492.22;;;12.40;70.56
64739;BME280;51175;51.186;0.276;2023-02-03T02:59:17;102489.59;;;12.40;70.58
64739;BME280;51175;51.186;0.276;2023-02-03T02:59:48;102486.16;;;12.40;70.69
64739;BME280;51175;51.186;0.276;2023-02-03T03:00:18;102485.09;;;12.41;70.79
64739;BME280;51175;51.186;0.276;2023-02-03T03:00:49;102485.91;;;12.41;70.59
64739;BME280;51175;51.186;0.276;2023-02-03T03:01:20;102484.28;;;12.40;70.71
64739;BME280;51175;51.186;0.276;2023-02-03T03:01:51;102486.72;;;12.42;70.51
64739;BME280;51175;51.186;0.276;2023-02-03T03:02:21;102491.22;;;12.41;70.60
64739;BME280;51175;51.186;0.276;2023-02-03T03:02:56;102484.88;;;12.43;70.55
64739;BME280;51175;51.186;0.276;2023-02-03T03:03:26;102479.59;;;12.43;70.71
64739;BME280;51175;51.186;0.276;2023-02-03T03:03:59;102485.69;;;12.43;70.90
64739;BME280;51175;51.186;0.276;2023-02-03T03:04:33;102482.22;;;12.43;70.56
64739;BME280;51175;51.186;0.276;2023-02-03T03:05:07;102486.50;;;12.44;70.54
64739;BME280;51175;51.186;0.276;2023-02-03T03:05:41;102489.13;;;12.44;70.74
64739;BME280;51175;51.186;0.276;2023-02-03T03:06:25;102483.84;;;12.44;70.73
64739;BME280;51175;51.186;0.276;2023-02-03T03:06:59;102488.13;;;12.45;70.68
64739;BME280;51175;51.186;0.276;2023-02-03T03:07:36;102489.13;;;12.44;70.72
64739;BME280;51175;51.186;0.276;2023-02-03T03:08:10;102493.44;;;12.45;70.46
64739;BME280;51175;51.186;0.276;2023-02-03T03:08:47;102488.34;;;12.43;70.51
64739;BME280;51175;51.186;0.276;2023-02-03T03:09:30;102485.47;;;12.45;70.63